sensor_id;sensor_type;location;lat;lon;timestamp;temperature;humidity
18177;DHT22;9213;50.858;3.964;2023-05-07T00:00:37;21.10;49.10
18177;DHT22;9213;50.858;3.964;2023-05-07T00:03:03;21.00;49.10
18177;DHT22;9213;50.858;3.964;2023-05-07T00:05:30;21.00;49.40
18177;DHT22;9213;50.858;3.964;2023-05-07T00:07:59;21.00;49.50
18177;DHT22;9213;50.858;3.964;2023-05-07T00:10:26;21.00;49.90
18177;DHT22;9213;50.858;3.964;2023-05-07T00:12:53;20.90;50.10
18177;DHT22;9213;50.858;3.964;2023-05-07T00:15:20;20.90;50.10
18177;DHT22;9213;50.858;3.964;2023-05-07T00:17:47;20.90;50.10
18177;DHT22;9213;50.858;3.964;2023-05-07T00:20:14;20.90;50.20
18177;DHT22;9213;50.858;3.964;2023-05-07T00:22:41;20.80;50.20
18177;DHT22;9213;50.858;3.964;2023-05-07T00:25:09;20.80;50.30
18177;DHT22;9213;50.858;3.964;2023-05-07T00:27:36;20.80;50.40
18177;DHT22;9213;50.858;3.964;2023-05-07T00:30:04;20.80;50.50
18177;DHT22;9213;50.858;3.964;2023-05-07T00:32:31;20.80;50.50
18177;DHT22;9213;50.858;3.964;2023-05-07T00:34:58;20.70;50.70
18177;DHT22;9213;50.858;3.964;2023-05-07T00:37:25;20.70;50.70
18177;DHT22;9213;50.858;3.964;2023-05-07T00:39:52;20.60;50.70
18177;DHT22;9213;50.858;3.964;2023-05-07T00:42:21;20.60;50.90
18177;DHT22;9213;50.858;3.964;2023-05-07T00:44:48;20.50;50.80
18177;DHT22;9213;50.858;3.964;2023-05-07T00:47:15;20.50;50.80
18177;DHT22;9213;50.858;3.964;2023-05-07T00:49:43;20.30;50.90
18177;DHT22;9213;50.858;3.964;2023-05-07T00:52:14;20.30;51.20
18177;DHT22;9213;50.858;3.964;2023-05-07T00:54:41;20.20;51.20
18177;DHT22;9213;50.858;3.964;2023-05-07T00:57:09;20.20;51.30
18177;DHT22;9213;50.858;3.964;2023-05-07T00:59:38;20.10;51.50
18177;DHT22;9213;50.858;3.964;2023-05-07T01:02:06;20.10;51.60
18177;DHT22;9213;50.858;3.964;2023-05-07T01:04:33;20.00;51.40
18177;DHT22;9213;50.858;3.964;2023-05-07T01:07:01;20.00;51.40
18177;DHT22;9213;50.858;3.964;2023-05-07T01:09:28;19.90;51.60
18177;DHT22;9213;50.858;3.964;2023-05-07T01:11:56;19.90;51.60
18177;DHT22;9213;50.858;3.964;2023-05-07T01:14:24;19.90;51.60
18177;DHT22;9213;50.858;3.964;2023-05-07T01:16:53;19.80;51.60
18177;DHT22;9213;50.858;3.964;2023-05-07T01:19:20;19.80;51.90
18177;DHT22;9213;50.858;3.964;2023-05-07T01:21:48;19.80;51.80
18177;DHT22;9213;50.858;3.964;2023-05-07T01:24:17;19.80;51.70
18177;DHT22;9213;50.858;3.964;2023-05-07T01:26:44;19.80;51.90
18177;DHT22;9213;50.858;3.964;2023-05-07T01:29:11;19.70;51.90
18177;DHT22;9213;50.858;3.964;2023-05-07T01:31:40;19.70;51.90
18177;DHT22;9213;50.858;3.964;2023-05-07T01:34:10;19.70;51.90
18177;DHT22;9213;50.858;3.964;2023-05-07T01:36:38;19.70;52.00
18177;DHT22;9213;50.858;3.964;2023-05-07T01:39:06;19.70;52.00
18177;DHT22;9213;50.858;3.964;2023-05-07T01:41:35;19.70;52.00
18177;DHT22;9213;50.858;3.964;2023-05-07T01:44:03;19.70;52.00
18177;DHT22;9213;50.858;3.964;2023-05-07T01:46:31;19.70;52.20
18177;DHT22;9213;50.858;3.964;2023-05-07T01:48:59;19.70;52.20
18177;DHT22;9213;50.858;3.964;2023-05-07T01:51:26;19.70;52.30
18177;DHT22;9213;50.858;3.964;2023-05-07T01:53:53;19.80;52.20
18177;DHT22;9213;50.858;3.964;2023-05-07T01:56:21;19.80;52.50
18177;DHT22;9213;50.858;3.964;2023-05-07T01:58:49;19.80;52.50
18177;DHT22;9213;50.858;3.964;2023-05-07T02:01:17;19.90;52.20
18177;DHT22;9213;50.858;3.964;2023-05-07T02:03:44;19.80;52.00
18177;DHT22;9213;50.858;3.964;2023-05-07T02:06:11;19.80;52.70
18177;DHT22;9213;50.858;3.964;2023-05-07T02:08:38;19.80;52.10
18177;DHT22;9213;50.858;3.964;2023-05-07T02:11:05;19.80;52.30
18177;DHT22;9213;50.858;3.964;2023-05-07T02:13:33;19.80;52.40
18177;DHT22;9213;50.858;3.964;2023-05-07T02:16:02;19.80;52.50
18177;DHT22;9213;50.858;3.964;2023-05-07T02:18:29;19.80;52.60
18177;DHT22;9213;50.858;3.964;2023-05-07T02:20:57;19.70;52.60
18177;DHT22;9213;50.858;3.964;2023-05-07T02:23:24;19.70;52.60
18177;DHT22;9213;50.858;3.964;2023-05-07T02:25:51;19.70;52.50
18177;DHT22;9213;50.858;3.964;2023-05-07T02:28:18;19.70;52.60
18177;DHT22;9213;50.858;3.964;2023-05-07T02:30:45;19.70;52.60
18177;DHT22;9213;50.858;3.964;2023-05-07T02:33:13;19.70;52.60
18177;DHT22;9213;50.858;3.964;2023-05-07T02:35:40;19.70;52.80
18177;DHT22;9213;50.858;3.964;2023-05-07T02:38:07;19.60;52.70
18177;DHT22;9213;50.858;3.964;2023-05-07T02:40:36;19.60;52.60
18177;DHT22;9213;50.858;3.964;2023-05-07T02:43:04;19.60;52.50
18177;DHT22;9213;50.858;3.964;2023-05-07T02:45:32;19.60;52.70
18177;DHT22;9213;50.858;3.964;2023-05-07T02:47:59;19.60;52.70
18177;DHT22;9213;50.858;3.964;2023-05-07T02:50:27;19.60;52.90
18177;DHT22;9213;50.858;3.964;2023-05-07T02:52:54;19.60;53.00
18177;DHT22;9213;50.858;3.964;2023-05-07T02:55:21;19.60;53.00
18177;DHT22;9213;50.858;3.964;2023-05-07T02:57:48;19.60;52.80
18177;DHT22;9213;50.858;3.964;2023-05-07T03:00:16;19.60;52.70
18177;DHT22;9213;50.858;3.964;2023-05-07T03:02:44;19.60;52.60
18177;DHT22;9213;50.858;3.964;2023-05-07T03:05:11;19.50;52.70
18177;DHT22;9213;50.858;3.964;2023-05-07T03:07:39;19.50;52.80
18177;DHT22;9213;50.858;3.964;2023-05-07T03:10:09;19.50;53.00
18177;DHT22;9213;50.858;3.964;2023-05-07T03:12:37;19.50;52.90
18177;DHT22;9213;50.858;3.964;2023-05-07T03:15:05;19.40;53.00
18177;DHT22;9213;50.858;3.964;2023-05-07T03:17:32;19.40;53.00
18177;DHT22;9213;50.858;3.964;2023-05-07T03:19:59;19.40;53.10
18177;DHT22;9213;50.858;3.964;2023-05-07T03:22:26;19.40;53.20
18177;DHT22;9213;50.858;3.964;2023-05-07T03:24:54;19.40;53.20
18177;DHT22;9213;50.858;3.964;2023-05-07T03:27:21;19.40;53.30
18177;DHT22;9213;50.858;3.964;2023-05-07T03:29:48;19.40;53.20
18177;DHT22;9213;50.858;3.964;2023-05-07T03:32:15;19.40;53.10
18177;DHT22;9213;50.858;3.964;2023-05-07T03:34:42;19.40;53.10
18177;DHT22;9213;50.858;3.964;2023-05-07T03:37:09;19.50;53.10
18177;DHT22;9213;50.858;3.964;2023-05-07T03:39:35;19.40;52.90
18177;DHT22;9213;50.858;3.964;2023-05-07T03:42:04;19.50;53.00
18177;DHT22;9213;50.858;3.964;2023-05-07T03:44:31;19.50;53.00
18177;DHT22;9213;50.858;3.964;2023-05-07T03:46:58;19.50;53.10
18177;DHT22;9213;50.858;3.964;2023-05-07T03:49:25;19.50;53.20
18177;DHT22;9213;50.858;3.964;2023-05-07T03:51:51;19.50;53.10
18177;DHT22;9213;50.858;3.964;2023-05-07T03:54:18;19.50;53.00
18177;DHT22;9213;50.858;3.964;2023-05-07T03:56:45;19.50;53.00
18177;DHT22;9213;50.858;3.964;2023-05-07T03:59:13;19.60;53.00
18177;DHT22;9213;50.858;3.964;2023-05-07T04:01:40;19.50;53.00
18177;DHT22;9213;50.858;3.964;2023-05-07T04:04:07;19.50;53.10
18177;DHT22;9213;50.858;3.964;2023-05-07T04:06:34;19.50;53.10
18177;DHT22;9213;50.858;3.964;2023-05-07T04:09:01;19.50;53.20
18177;DHT22;9213;50.858;3.964;2023-05-07T04:11:28;19.50;53.20
18177;DHT22;9213;50.858;3.964;2023-05-07T04:13:55;19.50;53.40
18177;DHT22;9213;50.858;3.964;2023-05-07T04:16:23;19.50;53.50
18177;DHT22;9213;50.858;3.964;2023-05-07T04:18:50;19.50;53.50
18177;DHT22;9213;50.858;3.964;2023-05-07T04:21:18;19.50;53.40
18177;DHT22;9213;50.858;3.964;2023-05-07T04:23:46;19.50;53.60
18177;DHT22;9213;50.858;3.964;2023-05-07T04:26:13;19.50;53.60
18177;DHT22;9213;50.858;3.964;2023-05-07T04:28:40;19.50;53.60
18177;DHT22;9213;50.858;3.964;2023-05-07T04:31:07;19.50;53.70
18177;DHT22;9213;50.858;3.964;2023-05-07T04:33:35;19.50;53.70
18177;DHT22;9213;50.858;3.964;2023-05-07T04:36:03;19.50;53.80
18177;DHT22;9213;50.858;3.964;2023-05-07T04:38:30;19.50;53.70
18177;DHT22;9213;50.858;3.964;2023-05-07T04:41:02;19.60;53.50
18177;DHT22;9213;50.858;3.964;2023-05-07T04:43:29;19.60;53.50
18177;DHT22;9213;50.858;3.964;2023-05-07T04:45:56;19.60;53.30
18177;DHT22;9213;50.858;3.964;2023-05-07T04:48:23;19.60;53.40
18177;DHT22;9213;50.858;3.964;2023-05-07T04:50:52;19.60;53.40
18177;DHT22;9213;50.858;3.964;2023-05-07T04:53:19;19.70;53.30
18177;DHT22;9213;50.858;3.964;2023-05-07T04:55:46;19.70;53.20
18177;DHT22;9213;50.858;3.964;2023-05-07T04:58:13;19.70;53.20
18177;DHT22;9213;50.858;3.964;2023-05-07T05:00:41;19.70;53.30
18177;DHT22;9213;50.858;3.964;2023-05-07T05:03:09;19.70;53.40
18177;DHT22;9213;50.858;3.964;2023-05-07T05:05:36;19.80;53.30
18177;DHT22;9213;50.858;3.964;2023-05-07T05:08:05;19.70;53.30
18177;DHT22;9213;50.858;3.964;2023-05-07T05:10:31;19.80;53.40
18177;DHT22;9213;50.858;3.964;2023-05-07T05:12:58;19.80;53.40
18177;DHT22;9213;50.858;3.964;2023-05-07T05:15:25;19.80;53.30
18177;DHT22;9213;50.858;3.964;2023-05-07T05:17:52;19.80;53.20
18177;DHT22;9213;50.858;3.964;2023-05-07T05:20:19;19.80;53.10
18177;DHT22;9213;50.858;3.964;2023-05-07T05:22:46;19.80;53.00
18177;DHT22;9213;50.858;3.964;2023-05-07T05:25:14;19.80;53.00
18177;DHT22;9213;50.858;3.964;2023-05-07T05:27:41;19.80;53.10
18177;DHT22;9213;50.858;3.964;2023-05-07T05:30:09;19.80;53.20
18177;DHT22;9213;50.858;3.964;2023-05-07T05:32:36;19.80;53.20
18177;DHT22;9213;50.858;3.964;2023-05-07T05:35:03;19.80;53.10
18177;DHT22;9213;50.858;3.964;2023-05-07T05:37:31;19.80;53.20
18177;DHT22;9213;50.858;3.964;2023-05-07T05:39:58;19.80;53.50
18177;DHT22;9213;50.858;3.964;2023-05-07T05:42:26;19.80;53.80
18177;DHT22;9213;50.858;3.964;2023-05-07T05:44:53;19.70;54.20
18177;DHT22;9213;50.858;3.964;2023-05-07T05:47:20;19.70;54.60
18177;DHT22;9213;50.858;3.964;2023-05-07T05:49:47;19.60;55.10
18177;DHT22;9213;50.858;3.964;2023-05-07T05:52:14;19.50;55.50
18177;DHT22;9213;50.858;3.964;2023-05-07T05:54:42;19.50;55.90
18177;DHT22;9213;50.858;3.964;2023-05-07T05:57:09;19.40;56.10
18177;DHT22;9213;50.858;3.964;2023-05-07T05:59:37;19.30;56.50
18177;DHT22;9213;50.858;3.964;2023-05-07T06:02:04;19.30;56.90
18177;DHT22;9213;50.858;3.964;2023-05-07T06:04:31;19.30;57.20
18177;DHT22;9213;50.858;3.964;2023-05-07T06:06:58;19.20;57.40
18177;DHT22;9213;50.858;3.964;2023-05-07T06:09:25;19.20;57.80
18177;DHT22;9213;50.858;3.964;2023-05-07T06:11:51;19.20;58.10
18177;DHT22;9213;50.858;3.964;2023-05-07T06:14:18;19.10;58.40
18177;DHT22;9213;50.858;3.964;2023-05-07T06:16:47;19.10;58.70
18177;DHT22;9213;50.858;3.964;2023-05-07T06:19:14;19.00;59.00
18177;DHT22;9213;50.858;3.964;2023-05-07T06:21:43;19.00;59.20
18177;DHT22;9213;50.858;3.964;2023-05-07T06:24:10;19.00;59.40
18177;DHT22;9213;50.858;3.964;2023-05-07T06:26:37;19.00;59.60
18177;DHT22;9213;50.858;3.964;2023-05-07T06:29:04;19.00;59.90
18177;DHT22;9213;50.858;3.964;2023-05-07T06:31:31;18.90;60.20
18177;DHT22;9213;50.858;3.964;2023-05-07T06:33:59;18.90;60.30
18177;DHT22;9213;50.858;3.964;2023-05-07T06:36:27;18.90;60.70
18177;DHT22;9213;50.858;3.964;2023-05-07T06:38:55;18.90;60.80
18177;DHT22;9213;50.858;3.964;2023-05-07T06:41:22;18.90;61.00
18177;DHT22;9213;50.858;3.964;2023-05-07T06:43:48;18.90;61.10
18177;DHT22;9213;50.858;3.964;2023-05-07T06:46:16;18.90;61.30
18177;DHT22;9213;50.858;3.964;2023-05-07T06:48:42;19.00;61.40
18177;DHT22;9213;50.858;3.964;2023-05-07T06:51:11;19.00;61.50
18177;DHT22;9213;50.858;3.964;2023-05-07T06:53:38;19.00;61.70
18177;DHT22;9213;50.858;3.964;2023-05-07T06:56:05;19.00;61.70
18177;DHT22;9213;50.858;3.964;2023-05-07T06:58:32;19.00;61.80
18177;DHT22;9213;50.858;3.964;2023-05-07T07:00:59;19.00;61.90
18177;DHT22;9213;50.858;3.964;2023-05-07T07:03:26;19.10;62.10
18177;DHT22;9213;50.858;3.964;2023-05-07T07:05:54;19.10;61.90
18177;DHT22;9213;50.858;3.964;2023-05-07T07:08:22;19.20;62.00
18177;DHT22;9213;50.858;3.964;2023-05-07T07:10:49;19.20;62.00
18177;DHT22;9213;50.858;3.964;2023-05-07T07:13:16;19.30;61.90
18177;DHT22;9213;50.858;3.964;2023-05-07T07:15:43;19.40;62.00
18177;DHT22;9213;50.858;3.964;2023-05-07T07:18:10;19.40;61.80
18177;DHT22;9213;50.858;3.964;2023-05-07T07:20:37;19.40;61.80
18177;DHT22;9213;50.858;3.964;2023-05-07T07:23:04;19.50;61.90
18177;DHT22;9213;50.858;3.964;2023-05-07T07:25:32;19.50;61.80
18177;DHT22;9213;50.858;3.964;2023-05-07T07:27:59;19.60;61.70
18177;DHT22;9213;50.858;3.964;2023-05-07T07:30:26;19.60;61.50
18177;DHT22;9213;50.858;3.964;2023-05-07T07:32:53;19.70;61.50
18177;DHT22;9213;50.858;3.964;2023-05-07T07:35:20;19.70;61.40
18177;DHT22;9213;50.858;3.964;2023-05-07T07:37:48;19.80;61.30
18177;DHT22;9213;50.858;3.964;2023-05-07T07:40:16;19.80;61.30
18177;DHT22;9213;50.858;3.964;2023-05-07T07:42:44;19.90;61.30
18177;DHT22;9213;50.858;3.964;2023-05-07T07:45:11;19.90;61.30
18177;DHT22;9213;50.858;3.964;2023-05-07T07:47:39;19.90;61.00
18177;DHT22;9213;50.858;3.964;2023-05-07T07:50:06;19.90;61.00
18177;DHT22;9213;50.858;3.964;2023-05-07T07:52:34;20.00;61.00
18177;DHT22;9213;50.858;3.964;2023-05-07T07:55:01;20.00;60.80
18177;DHT22;9213;50.858;3.964;2023-05-07T07:57:28;20.00;60.60
18177;DHT22;9213;50.858;3.964;2023-05-07T07:59:56;20.00;60.60
18177;DHT22;9213;50.858;3.964;2023-05-07T08:02:23;19.90;60.70
18177;DHT22;9213;50.858;3.964;2023-05-07T08:04:50;19.90;60.60
18177;DHT22;9213;50.858;3.964;2023-05-07T08:07:17;19.90;60.70
18177;DHT22;9213;50.858;3.964;2023-05-07T08:09:46;19.90;60.60
18177;DHT22;9213;50.858;3.964;2023-05-07T08:12:13;19.90;60.60
18177;DHT22;9213;50.858;3.964;2023-05-07T08:14:40;19.90;60.60
18177;DHT22;9213;50.858;3.964;2023-05-07T08:17:09;19.90;60.70
18177;DHT22;9213;50.858;3.964;2023-05-07T08:19:36;19.90;60.90
18177;DHT22;9213;50.858;3.964;2023-05-07T08:22:03;19.90;60.90
18177;DHT22;9213;50.858;3.964;2023-05-07T08:24:31;19.80;60.70
18177;DHT22;9213;50.858;3.964;2023-05-07T08:26:58;19.80;60.90
18177;DHT22;9213;50.858;3.964;2023-05-07T08:29:24;19.80;60.80
18177;DHT22;9213;50.858;3.964;2023-05-07T08:31:51;19.80;60.90
18177;DHT22;9213;50.858;3.964;2023-05-07T08:34:21;19.80;61.20
18177;DHT22;9213;50.858;3.964;2023-05-07T08:36:48;19.80;61.30
18177;DHT22;9213;50.858;3.964;2023-05-07T08:39:15;19.90;61.20
18177;DHT22;9213;50.858;3.964;2023-05-07T08:41:44;19.90;61.20
18177;DHT22;9213;50.858;3.964;2023-05-07T08:44:12;20.00;61.10
18177;DHT22;9213;50.858;3.964;2023-05-07T08:46:41;20.00;61.00
18177;DHT22;9213;50.858;3.964;2023-05-07T08:49:09;20.10;61.00
18177;DHT22;9213;50.858;3.964;2023-05-07T08:51:37;20.10;60.90
18177;DHT22;9213;50.858;3.964;2023-05-07T08:54:05;20.20;61.00
18177;DHT22;9213;50.858;3.964;2023-05-07T08:56:33;20.30;60.90
18177;DHT22;9213;50.858;3.964;2023-05-07T08:59:00;20.30;60.80
18177;DHT22;9213;50.858;3.964;2023-05-07T09:01:27;20.40;60.70
18177;DHT22;9213;50.858;3.964;2023-05-07T09:03:53;20.50;60.50
18177;DHT22;9213;50.858;3.964;2023-05-07T09:06:21;20.60;60.30
18177;DHT22;9213;50.858;3.964;2023-05-07T09:08:53;20.60;60.20
18177;DHT22;9213;50.858;3.964;2023-05-07T09:11:21;20.70;60.20
18177;DHT22;9213;50.858;3.964;2023-05-07T09:13:49;20.70;59.90
18177;DHT22;9213;50.858;3.964;2023-05-07T09:16:21;20.80;59.70
18177;DHT22;9213;50.858;3.964;2023-05-07T09:18:51;20.90;59.60
18177;DHT22;9213;50.858;3.964;2023-05-07T09:21:19;20.90;59.40
18177;DHT22;9213;50.858;3.964;2023-05-07T09:23:48;20.90;59.50
18177;DHT22;9213;50.858;3.964;2023-05-07T09:26:17;20.90;59.50
18177;DHT22;9213;50.858;3.964;2023-05-07T09:28:44;20.90;59.30
18177;DHT22;9213;50.858;3.964;2023-05-07T09:31:12;20.90;59.20
18177;DHT22;9213;50.858;3.964;2023-05-07T09:33:39;20.90;59.40
18177;DHT22;9213;50.858;3.964;2023-05-07T09:36:07;20.90;59.40
18177;DHT22;9213;50.858;3.964;2023-05-07T09:38:37;20.90;59.40
18177;DHT22;9213;50.858;3.964;2023-05-07T09:41:05;20.90;59.50
18177;DHT22;9213;50.858;3.964;2023-05-07T09:43:34;20.90;59.70
18177;DHT22;9213;50.858;3.964;2023-05-07T09:46:07;20.90;60.60
18177;DHT22;9213;50.858;3.964;2023-05-07T09:48:37;20.90;59.90
18177;DHT22;9213;50.858;3.964;2023-05-07T09:51:18;20.90;59.80
18177;DHT22;9213;50.858;3.964;2023-05-07T09:53:48;21.00;59.80
18177;DHT22;9213;50.858;3.964;2023-05-07T09:56:18;21.00;59.60
18177;DHT22;9213;50.858;3.964;2023-05-07T09:58:47;21.00;59.60
18177;DHT22;9213;50.858;3.964;2023-05-07T10:01:16;21.10;59.60
18177;DHT22;9213;50.858;3.964;2023-05-07T10:03:44;21.10;59.50
18177;DHT22;9213;50.858;3.964;2023-05-07T10:06:13;21.20;59.40
18177;DHT22;9213;50.858;3.964;2023-05-07T10:08:40;21.30;59.50
18177;DHT22;9213;50.858;3.964;2023-05-07T10:11:09;21.30;59.30
18177;DHT22;9213;50.858;3.964;2023-05-07T10:13:37;21.30;59.40
18177;DHT22;9213;50.858;3.964;2023-05-07T10:16:05;21.40;59.50
18177;DHT22;9213;50.858;3.964;2023-05-07T10:18:33;21.50;59.50
18177;DHT22;9213;50.858;3.964;2023-05-07T10:21:04;21.60;59.20
18177;DHT22;9213;50.858;3.964;2023-05-07T10:23:33;21.60;59.10
18177;DHT22;9213;50.858;3.964;2023-05-07T10:26:03;21.70;58.90
18177;DHT22;9213;50.858;3.964;2023-05-07T10:28:34;21.80;58.90
18177;DHT22;9213;50.858;3.964;2023-05-07T10:31:18;21.80;58.80
18177;DHT22;9213;50.858;3.964;2023-05-07T10:33:51;21.90;58.70
18177;DHT22;9213;50.858;3.964;2023-05-07T10:36:20;21.90;58.60
18177;DHT22;9213;50.858;3.964;2023-05-07T10:38:47;21.90;58.50
18177;DHT22;9213;50.858;3.964;2023-05-07T10:41:14;22.00;58.30
18177;DHT22;9213;50.858;3.964;2023-05-07T10:43:43;22.00;58.20
18177;DHT22;9213;50.858;3.964;2023-05-07T10:46:17;22.00;58.20
18177;DHT22;9213;50.858;3.964;2023-05-07T10:49:06;22.00;58.50
18177;DHT22;9213;50.858;3.964;2023-05-07T10:51:34;22.10;58.70
18177;DHT22;9213;50.858;3.964;2023-05-07T10:54:21;22.10;58.50
18177;DHT22;9213;50.858;3.964;2023-05-07T10:56:48;22.20;58.50
18177;DHT22;9213;50.858;3.964;2023-05-07T10:59:35;22.20;58.20
18177;DHT22;9213;50.858;3.964;2023-05-07T11:02:09;22.30;58.10
18177;DHT22;9213;50.858;3.964;2023-05-07T11:04:37;22.30;57.70
18177;DHT22;9213;50.858;3.964;2023-05-07T11:10:00;22.50;57.70
18177;DHT22;9213;50.858;3.964;2023-05-07T11:12:54;22.40;57.50
18177;DHT22;9213;50.858;3.964;2023-05-07T11:15:41;22.50;57.80
18177;DHT22;9213;50.858;3.964;2023-05-07T11:18:11;22.70;58.00
18177;DHT22;9213;50.858;3.964;2023-05-07T11:20:56;22.80;57.60
18177;DHT22;9213;50.858;3.964;2023-05-07T11:26:29;23.40;56.80
18177;DHT22;9213;50.858;3.964;2023-05-07T11:28:57;23.70;56.00
18177;DHT22;9213;50.858;3.964;2023-05-07T11:31:27;23.80;55.20
18177;DHT22;9213;50.858;3.964;2023-05-07T11:33:57;24.00;54.50
18177;DHT22;9213;50.858;3.964;2023-05-07T11:36:24;24.10;54.10
18177;DHT22;9213;50.858;3.964;2023-05-07T11:38:52;24.10;53.60
18177;DHT22;9213;50.858;3.964;2023-05-07T11:41:19;24.00;53.40
18177;DHT22;9213;50.858;3.964;2023-05-07T11:43:57;23.90;53.40
18177;DHT22;9213;50.858;3.964;2023-05-07T11:46:24;23.70;53.50
18177;DHT22;9213;50.858;3.964;2023-05-07T11:48:52;23.50;53.70
18177;DHT22;9213;50.858;3.964;2023-05-07T11:51:21;23.30;54.10
18177;DHT22;9213;50.858;3.964;2023-05-07T11:53:48;23.10;54.70
18177;DHT22;9213;50.858;3.964;2023-05-07T11:56:16;22.90;55.00
18177;DHT22;9213;50.858;3.964;2023-05-07T11:58:45;22.80;55.60
18177;DHT22;9213;50.858;3.964;2023-05-07T12:01:13;22.70;56.20
18177;DHT22;9213;50.858;3.964;2023-05-07T12:03:41;22.50;56.60
18177;DHT22;9213;50.858;3.964;2023-05-07T12:06:09;22.60;56.80
18177;DHT22;9213;50.858;3.964;2023-05-07T12:08:39;22.50;57.10
18177;DHT22;9213;50.858;3.964;2023-05-07T12:11:12;22.50;57.30
18177;DHT22;9213;50.858;3.964;2023-05-07T12:13:40;22.60;57.20
18177;DHT22;9213;50.858;3.964;2023-05-07T12:16:07;22.60;57.00
18177;DHT22;9213;50.858;3.964;2023-05-07T12:18:35;22.60;57.10
18177;DHT22;9213;50.858;3.964;2023-05-07T12:21:04;22.70;57.00
18177;DHT22;9213;50.858;3.964;2023-05-07T12:23:32;22.60;57.00
18177;DHT22;9213;50.858;3.964;2023-05-07T12:26:01;22.60;57.30
18177;DHT22;9213;50.858;3.964;2023-05-07T12:28:28;22.60;57.40
18177;DHT22;9213;50.858;3.964;2023-05-07T12:30:57;22.70;57.50
18177;DHT22;9213;50.858;3.964;2023-05-07T12:33:25;22.60;57.30
18177;DHT22;9213;50.858;3.964;2023-05-07T12:35:54;22.70;57.70
18177;DHT22;9213;50.858;3.964;2023-05-07T12:38:22;22.80;57.70
18177;DHT22;9213;50.858;3.964;2023-05-07T12:40:50;22.90;57.70
18177;DHT22;9213;50.858;3.964;2023-05-07T12:43:23;23.10;57.60
18177;DHT22;9213;50.858;3.964;2023-05-07T12:45:52;23.20;57.30
18177;DHT22;9213;50.858;3.964;2023-05-07T12:48:20;23.30;57.10
18177;DHT22;9213;50.858;3.964;2023-05-07T12:50:49;23.50;56.80
18177;DHT22;9213;50.858;3.964;2023-05-07T12:53:16;23.60;56.40
18177;DHT22;9213;50.858;3.964;2023-05-07T12:55:45;23.70;56.40
18177;DHT22;9213;50.858;3.964;2023-05-07T12:58:16;23.90;56.10
18177;DHT22;9213;50.858;3.964;2023-05-07T13:00:47;24.00;55.70
18177;DHT22;9213;50.858;3.964;2023-05-07T13:03:21;24.10;55.40
18177;DHT22;9213;50.858;3.964;2023-05-07T13:05:49;24.30;55.20
18177;DHT22;9213;50.858;3.964;2023-05-07T13:08:24;24.40;55.00
18177;DHT22;9213;50.858;3.964;2023-05-07T13:10:51;24.50;54.80
18177;DHT22;9213;50.858;3.964;2023-05-07T13:13:18;24.50;54.30
18177;DHT22;9213;50.858;3.964;2023-05-07T13:15:47;24.60;54.00
18177;DHT22;9213;50.858;3.964;2023-05-07T13:18:14;24.70;53.80
18177;DHT22;9213;50.858;3.964;2023-05-07T13:20:41;24.70;53.70
18177;DHT22;9213;50.858;3.964;2023-05-07T13:23:08;24.80;53.60
18177;DHT22;9213;50.858;3.964;2023-05-07T13:25:34;24.90;53.50
18177;DHT22;9213;50.858;3.964;2023-05-07T13:28:01;25.00;53.00
18177;DHT22;9213;50.858;3.964;2023-05-07T13:30:29;25.10;52.60
18177;DHT22;9213;50.858;3.964;2023-05-07T13:32:58;25.20;52.20
18177;DHT22;9213;50.858;3.964;2023-05-07T13:35:25;25.30;52.10
18177;DHT22;9213;50.858;3.964;2023-05-07T13:37:52;25.40;51.50
18177;DHT22;9213;50.858;3.964;2023-05-07T13:40:20;25.50;51.50
18177;DHT22;9213;50.858;3.964;2023-05-07T13:42:47;25.60;51.00
18177;DHT22;9213;50.858;3.964;2023-05-07T13:45:15;25.60;50.40
18177;DHT22;9213;50.858;3.964;2023-05-07T13:47:42;25.70;50.20
18177;DHT22;9213;50.858;3.964;2023-05-07T13:50:11;25.70;50.10
18177;DHT22;9213;50.858;3.964;2023-05-07T13:52:40;25.80;49.90
18177;DHT22;9213;50.858;3.964;2023-05-07T13:55:09;25.80;49.80
18177;DHT22;9213;50.858;3.964;2023-05-07T13:57:36;25.80;50.00
18177;DHT22;9213;50.858;3.964;2023-05-07T14:00:04;25.90;49.30
18177;DHT22;9213;50.858;3.964;2023-05-07T14:02:32;25.90;49.00
18177;DHT22;9213;50.858;3.964;2023-05-07T14:04:59;26.00;49.40
18177;DHT22;9213;50.858;3.964;2023-05-07T14:07:27;26.00;49.60
18177;DHT22;9213;50.858;3.964;2023-05-07T14:09:54;26.10;48.60
18177;DHT22;9213;50.858;3.964;2023-05-07T14:12:21;26.10;48.60
18177;DHT22;9213;50.858;3.964;2023-05-07T14:14:48;26.10;48.30
18177;DHT22;9213;50.858;3.964;2023-05-07T14:17:15;26.10;47.80
18177;DHT22;9213;50.858;3.964;2023-05-07T14:19:42;26.00;48.20
18177;DHT22;9213;50.858;3.964;2023-05-07T14:22:09;26.00;48.10
18177;DHT22;9213;50.858;3.964;2023-05-07T14:24:37;25.90;48.00
18177;DHT22;9213;50.858;3.964;2023-05-07T14:27:05;25.90;48.10
18177;DHT22;9213;50.858;3.964;2023-05-07T14:29:32;25.80;48.60
18177;DHT22;9213;50.858;3.964;2023-05-07T14:32:01;25.80;48.50
18177;DHT22;9213;50.858;3.964;2023-05-07T14:34:28;25.80;48.90
18177;DHT22;9213;50.858;3.964;2023-05-07T14:36:55;25.80;48.70
18177;DHT22;9213;50.858;3.964;2023-05-07T14:39:22;25.80;48.30
18177;DHT22;9213;50.858;3.964;2023-05-07T14:41:50;25.80;48.80
18177;DHT22;9213;50.858;3.964;2023-05-07T14:44:17;25.90;48.80
18177;DHT22;9213;50.858;3.964;2023-05-07T14:46:44;25.90;48.60
18177;DHT22;9213;50.858;3.964;2023-05-07T14:49:11;25.90;48.30
18177;DHT22;9213;50.858;3.964;2023-05-07T14:51:42;25.80;48.20
18177;DHT22;9213;50.858;3.964;2023-05-07T14:54:10;25.90;48.00
18177;DHT22;9213;50.858;3.964;2023-05-07T14:56:37;25.90;48.00
18177;DHT22;9213;50.858;3.964;2023-05-07T14:59:05;25.90;47.50
18177;DHT22;9213;50.858;3.964;2023-05-07T15:01:32;26.00;47.80
18177;DHT22;9213;50.858;3.964;2023-05-07T15:04:00;26.00;48.60
18177;DHT22;9213;50.858;3.964;2023-05-07T15:06:27;26.00;48.30
18177;DHT22;9213;50.858;3.964;2023-05-07T15:08:54;26.10;48.10
18177;DHT22;9213;50.858;3.964;2023-05-07T15:11:22;26.10;48.00
18177;DHT22;9213;50.858;3.964;2023-05-07T15:13:49;26.10;48.30
18177;DHT22;9213;50.858;3.964;2023-05-07T15:16:17;26.10;47.80
18177;DHT22;9213;50.858;3.964;2023-05-07T15:18:44;26.10;48.00
18177;DHT22;9213;50.858;3.964;2023-05-07T15:21:11;26.10;47.40
18177;DHT22;9213;50.858;3.964;2023-05-07T15:23:38;26.10;47.00
18177;DHT22;9213;50.858;3.964;2023-05-07T15:26:06;26.00;47.50
18177;DHT22;9213;50.858;3.964;2023-05-07T15:28:34;26.00;47.40
18177;DHT22;9213;50.858;3.964;2023-05-07T15:31:01;26.00;47.20
18177;DHT22;9213;50.858;3.964;2023-05-07T15:33:29;26.00;46.70
18177;DHT22;9213;50.858;3.964;2023-05-07T15:35:56;26.00;46.30
18177;DHT22;9213;50.858;3.964;2023-05-07T15:38:24;26.00;46.30
18177;DHT22;9213;50.858;3.964;2023-05-07T15:40:51;26.00;45.70
18177;DHT22;9213;50.858;3.964;2023-05-07T15:43:18;26.00;45.10
18177;DHT22;9213;50.858;3.964;2023-05-07T15:45:46;26.00;45.10
18177;DHT22;9213;50.858;3.964;2023-05-07T15:48:13;26.10;44.60
18177;DHT22;9213;50.858;3.964;2023-05-07T15:50:41;26.00;44.50
18177;DHT22;9213;50.858;3.964;2023-05-07T15:53:08;26.10;44.80
18177;DHT22;9213;50.858;3.964;2023-05-07T15:55:35;26.00;44.60